createdAt,value
2022-11-19T00:04:32.170Z,1008.9
2022-11-19T00:09:38.498Z,1008.9
2022-11-19T00:14:44.418Z,1008.9
2022-11-19T00:19:50.474Z,1008.9
2022-11-19T00:24:56.611Z,1009
2022-11-19T00:30:02.643Z,1009
2022-11-19T00:35:08.713Z,1009
2022-11-19T00:40:14.817Z,1009
2022-11-19T00:45:20.891Z,1009.1
2022-11-19T00:50:27.003Z,1009.1
2022-11-19T00:55:33.150Z,1009.1
2022-11-19T01:00:39.168Z,1009.2
2022-11-19T01:05:45.269Z,1009.3
2022-11-19T01:10:51.362Z,1009.3
2022-11-19T01:15:57.443Z,1009.3
2022-11-19T01:21:03.598Z,1009.3
2022-11-19T01:26:09.692Z,1009.3
2022-11-19T01:31:15.725Z,1009.2
2022-11-19T01:36:21.905Z,1009.3
2022-11-19T01:41:27.953Z,1009.3
2022-11-19T01:46:34.151Z,1009.3
2022-11-19T01:51:40.179Z,1009.3
2022-11-19T01:56:46.326Z,1009.4
2022-11-19T02:01:52.560Z,1009.4
2022-11-19T02:06:57.718Z,1009.5
2022-11-19T02:12:03.774Z,1009.5
2022-11-19T02:17:08.952Z,1009.6
2022-11-19T02:22:14.899Z,1009.6
2022-11-19T02:27:21.015Z,1009.6
2022-11-19T02:32:27.082Z,1009.7
2022-11-19T02:37:33.168Z,1009.5
2022-11-19T02:42:39.279Z,1009.5
2022-11-19T02:47:45.462Z,1009.4
2022-11-19T02:52:51.508Z,1009.4
2022-11-19T02:57:57.567Z,1009.4
2022-11-19T03:03:03.690Z,1009.4
2022-11-19T03:08:09.857Z,1009.4
2022-11-19T03:13:15.887Z,1009.4
2022-11-19T03:18:21.904Z,1009.5
2022-11-19T03:23:28.102Z,1009.5
2022-11-19T03:28:34.088Z,1009.5
2022-11-19T03:33:40.235Z,1009.5
2022-11-19T03:38:46.258Z,1009.5
2022-11-19T03:43:52.357Z,1009.6
2022-11-19T03:48:58.448Z,1009.7
2022-11-19T03:54:04.536Z,1009.7
2022-11-19T03:59:10.728Z,1009.7
2022-11-19T04:04:16.717Z,1009.7
2022-11-19T04:09:22.957Z,1009.7
2022-11-19T04:14:28.998Z,1009.8
2022-11-19T04:19:34.990Z,1009.7
2022-11-19T04:24:41.087Z,1009.7
2022-11-19T04:29:47.166Z,1009.7
2022-11-19T04:34:53.281Z,1009.7
2022-11-19T04:39:59.346Z,1009.7
2022-11-19T04:45:05.445Z,1009.7
2022-11-19T04:50:11.528Z,1009.7
2022-11-19T04:55:17.630Z,1009.7
2022-11-19T05:00:23.729Z,1009.6
2022-11-19T05:05:29.807Z,1009.5
2022-11-19T05:10:35.906Z,1009.5
2022-11-19T05:15:41.986Z,1009.5
2022-11-19T05:20:48.131Z,1009.5
2022-11-19T05:25:54.235Z,1009.4
2022-11-19T05:31:00.557Z,1009.4
2022-11-19T05:36:06.560Z,1009.5
2022-11-19T05:41:12.732Z,1009.4
2022-11-19T05:46:18.867Z,1009.3
2022-11-19T05:51:24.997Z,1009.3
2022-11-19T05:56:31.153Z,1009.5
2022-11-19T06:01:37.294Z,1009.5
2022-11-19T06:06:43.480Z,1009.5
2022-11-19T06:11:49.648Z,1009.6
2022-11-19T06:16:55.760Z,1009.6
2022-11-19T06:22:01.989Z,1009.6
2022-11-19T06:27:08.105Z,1009.5
2022-11-19T06:32:14.327Z,1009.7
2022-11-19T06:37:20.595Z,1009.6
2022-11-19T06:42:26.910Z,1009.5
2022-11-19T06:47:33.183Z,1009.5
2022-11-19T06:52:39.473Z,1009.4
2022-11-19T06:57:45.661Z,1009.5
2022-11-19T07:02:52.004Z,1009.5
2022-11-19T07:07:58.200Z,1009.5
2022-11-19T07:13:04.560Z,1009.5
2022-11-19T07:18:09.687Z,1009.7
2022-11-19T07:23:15.805Z,1009.7
2022-11-19T07:28:21.873Z,1009.7
2022-11-19T07:33:27.965Z,1009.6
2022-11-19T07:38:34.051Z,1009.5
2022-11-19T07:43:40.204Z,1009.6
2022-11-19T07:48:46.315Z,1009.6
2022-11-19T07:53:52.335Z,1009.7
2022-11-19T07:58:58.409Z,1009.6
2022-11-19T08:04:04.627Z,1009.5
2022-11-19T08:09:10.722Z,1009.5
2022-11-19T08:14:16.819Z,1009.4
2022-11-19T08:19:22.933Z,1009.3
2022-11-19T08:24:29.068Z,1009.3
2022-11-19T08:29:34.958Z,1009.2
2022-11-19T08:34:41.053Z,1009.2
2022-11-19T08:39:47.146Z,1009.2
2022-11-19T08:44:53.383Z,1009.2
2022-11-19T08:49:59.347Z,1009.2
2022-11-19T08:55:05.494Z,1009.2
2022-11-19T09:00:11.518Z,1009.2
2022-11-19T09:05:17.590Z,1009.1
2022-11-19T09:10:23.716Z,1009.1
2022-11-19T09:15:29.777Z,1009.1
2022-11-19T09:20:35.876Z,1009.2
2022-11-19T09:25:42.122Z,1009.2
2022-11-19T09:30:47.270Z,1009.2
2022-11-19T09:35:53.568Z,1009.3
2022-11-19T09:40:59.523Z,1009.2
2022-11-19T09:46:05.676Z,1009.3
2022-11-19T09:51:11.917Z,1009.4
2022-11-19T09:56:17.978Z,1009.2
2022-11-19T10:01:24.167Z,1009.8
2022-11-19T10:06:30.380Z,1009.3
2022-11-19T10:11:35.455Z,1009.3
2022-11-19T10:16:41.570Z,1009.2
2022-11-19T10:21:47.627Z,1009.1
2022-11-19T10:26:53.765Z,1009.1
2022-11-19T10:31:58.915Z,1008.9
2022-11-19T10:37:04.919Z,1009
2022-11-19T10:42:11.029Z,1008.9
2022-11-19T10:47:17.199Z,1008.8
2022-11-19T10:52:23.334Z,1008.8
2022-11-19T10:57:29.308Z,1008.7
2022-11-19T11:02:35.516Z,1008.7
2022-11-19T11:07:41.491Z,1008.5
2022-11-19T11:12:47.555Z,1008.5
2022-11-19T11:17:53.673Z,1008.4
2022-11-19T11:22:59.739Z,1008.3
2022-11-19T11:28:05.830Z,1008.2
2022-11-19T11:33:11.930Z,1008.2
2022-11-19T11:38:17.026Z,1008.1
2022-11-19T11:43:23.120Z,1008.1
2022-11-19T11:48:29.209Z,1008.1
2022-11-19T11:53:35.409Z,1008.1
2022-11-19T11:58:41.400Z,1008.3
2022-11-19T12:03:46.524Z,1008
2022-11-19T12:08:52.608Z,1008.1
2022-11-19T12:13:58.723Z,1008.1
2022-11-19T12:19:04.800Z,1008.1
2022-11-19T12:24:10.929Z,1008.1
2022-11-19T12:29:16.973Z,1008.1
2022-11-19T12:34:23.106Z,1008.1
2022-11-19T12:39:29.161Z,1008.1
2022-11-19T12:44:35.241Z,1008
2022-11-19T12:49:41.551Z,1008
2022-11-19T12:54:47.459Z,1008
2022-11-19T12:59:52.682Z,1008
2022-11-19T13:04:58.617Z,1007.9
2022-11-19T13:10:04.733Z,1007.8
2022-11-19T13:15:10.878Z,1007.8
2022-11-19T13:20:16.894Z,1007.8
2022-11-19T13:25:22.994Z,1007.8
2022-11-19T13:30:29.074Z,1007.8
2022-11-19T13:35:35.175Z,1007.8
2022-11-19T13:40:41.415Z,1007.7
2022-11-19T13:45:47.362Z,1007.7
2022-11-19T13:50:53.448Z,1007.7
2022-11-19T13:55:59.535Z,1007.6
2022-11-19T14:01:05.619Z,1007.6
2022-11-19T14:06:11.714Z,1007.6
2022-11-19T14:11:17.809Z,1007.6
2022-11-19T14:16:23.971Z,1007.7
2022-11-19T14:21:30.008Z,1007.7
2022-11-19T14:26:36.089Z,1007.8
2022-11-19T14:31:42.166Z,1007.7
2022-11-19T14:36:48.263Z,1007.8
2022-11-19T14:41:54.360Z,1007.7
2022-11-19T14:47:00.446Z,1007.7
2022-11-19T14:52:06.649Z,1007.6
2022-11-19T14:57:12.711Z,1007.3
2022-11-19T15:02:18.741Z,1007.3
2022-11-19T15:07:24.814Z,1007.3
2022-11-19T15:12:30.920Z,1007.3
2022-11-19T15:17:37.167Z,1007.3
2022-11-19T15:22:43.234Z,1007.3
2022-11-19T15:27:49.350Z,1007.3
2022-11-19T15:32:55.473Z,1007.2
2022-11-19T15:38:01.448Z,1007.2
2022-11-19T15:43:07.449Z,1007.2
2022-11-19T15:48:13.693Z,1007.1
2022-11-19T15:53:19.630Z,1007.2
2022-11-19T15:58:25.805Z,1007.1
2022-11-19T16:03:31.998Z,1007.1
2022-11-19T16:08:38.107Z,1007.2
2022-11-19T16:13:44.270Z,1007.2
2022-11-19T16:18:50.281Z,1007.1
2022-11-19T16:23:56.432Z,1007.1
2022-11-19T16:29:02.659Z,1007
2022-11-19T16:34:08.869Z,1007
2022-11-19T16:39:15.004Z,1007
2022-11-19T16:44:21.162Z,1007
2022-11-19T16:49:27.450Z,1007
2022-11-19T16:54:33.444Z,1007
2022-11-19T16:59:39.633Z,1007
2022-11-19T17:04:45.672Z,1007.1
2022-11-19T17:09:51.816Z,1007
2022-11-19T17:14:58.248Z,1007
2022-11-19T17:20:04.453Z,1007
2022-11-19T17:25:10.788Z,1007.1
2022-11-19T17:30:16.877Z,1007
2022-11-19T17:35:23.322Z,1007
2022-11-19T17:40:29.575Z,1007.1
2022-11-19T17:45:35.678Z,1007.1
2022-11-19T17:50:42.158Z,1007.1
2022-11-19T17:55:48.221Z,1007.1
2022-11-19T18:00:54.480Z,1007.2
2022-11-19T18:06:00.868Z,1007.2
2022-11-19T18:11:07.144Z,1007.1
2022-11-19T18:16:13.464Z,1007.1
2022-11-19T18:21:19.943Z,1007.1
2022-11-19T18:26:26.365Z,1007.1
2022-11-19T18:31:32.701Z,1007.1
2022-11-19T18:36:39.222Z,1007.1
2022-11-19T18:41:45.801Z,1007.2
2022-11-19T18:46:52.309Z,1007.1
2022-11-19T18:51:58.663Z,1007.1
2022-11-19T18:57:05.059Z,1007.1
2022-11-19T19:02:11.575Z,1007.1
2022-11-19T19:07:16.947Z,1007.2
2022-11-19T19:12:23.032Z,1007.2
2022-11-19T19:17:29.229Z,1007.1
2022-11-19T19:22:35.257Z,1007.1
2022-11-19T19:27:41.376Z,1007.2
2022-11-19T19:32:47.568Z,1007.2
2022-11-19T19:37:53.696Z,1007.2
2022-11-19T19:42:59.753Z,1007.3
2022-11-19T19:48:05.678Z,1007.2
2022-11-19T19:53:11.767Z,1007.2
2022-11-19T19:58:17.977Z,1007.3
2022-11-19T20:03:24.076Z,1007.3
2022-11-19T20:08:30.113Z,1007.3
2022-11-19T20:13:36.140Z,1007.4
2022-11-19T20:18:42.269Z,1007.4
2022-11-19T20:23:47.459Z,1007.5
2022-11-19T20:28:53.401Z,1007.5
2022-11-19T20:33:59.504Z,1007.5
2022-11-19T20:39:05.592Z,1007.6
2022-11-19T20:44:11.761Z,1007.7
2022-11-19T20:49:17.763Z,1007.7
2022-11-19T20:54:24.063Z,1007.6
2022-11-19T21:04:36.196Z,1007.6
2022-11-19T21:09:42.299Z,1007.6
2022-11-19T21:14:48.411Z,1007.6
2022-11-19T21:19:54.321Z,1007.6
2022-11-19T21:25:00.544Z,1007.6
2022-11-19T21:30:06.641Z,1007.6
2022-11-19T21:35:12.721Z,1007.4
2022-11-19T21:40:18.813Z,1007.5
2022-11-19T21:45:24.933Z,1007.5
2022-11-19T21:50:30.849Z,1007.4
2022-11-19T21:55:36.949Z,1007.4
2022-11-19T22:00:43.044Z,1007.4
2022-11-19T22:05:49.136Z,1007.3
2022-11-19T22:16:01.314Z,1007.3
2022-11-19T22:21:07.399Z,1007.3
2022-11-19T22:26:13.508Z,1007.3
2022-11-19T22:31:19.582Z,1007.2
2022-11-19T22:36:25.675Z,1007.2
2022-11-19T22:41:31.768Z,1007.2
2022-11-19T22:46:37.856Z,1007.1
2022-11-19T22:51:43.950Z,1007.1
2022-11-19T22:56:50.039Z,1007
2022-11-19T23:01:56.153Z,1007
2022-11-19T23:07:02.218Z,1007
2022-11-19T23:12:08.313Z,1007
2022-11-19T23:17:14.400Z,1007
2022-11-19T23:22:20.497Z,1007
2022-11-19T23:27:26.594Z,1007
2022-11-19T23:32:32.736Z,1007
2022-11-19T23:37:38.888Z,1006.9
2022-11-19T23:42:45.063Z,1007.1
2022-11-19T23:47:51.201Z,1007
2022-11-19T23:52:57.345Z,1007
2022-11-19T23:58:03.519Z,1007
